Time,TemperatureF,DewpointF,PressureIn,WindDirection,WindDirectionDegrees,WindSpeedMPH,WindSpeedGustMPH,Humidity,HourlyPrecipIn,Conditions,Clouds,dailyrainin,SoftwareType,DateUTC
2013-08-03 00:03:00,59.7,52.1,29.11,SW,225,0.0,0.0,76,0.00,CLR,SKC,0.00,WeatherDisplay:10.37,2013-08-02 23:03:00,
2013-08-03 00:08:00,59.7,52.1,29.12,WSW,248,0.0,0.0,76,0.00,CLR,SKC,0.00,WeatherDisplay:10.37,2013-08-02 23:08:00,
2013-08-03 00:13:00,59.5,52.3,29.11,SW,225,0.0,0.0,77,0.00,CLR,SKC,0.00,WeatherDisplay:10.37,2013-08-02 23:13:00,
2013-08-03 00:18:00,59.5,52.3,29.10,SW,225,0.0,0.0,77,0.00,CLR,SKC,0.00,WeatherDisplay:10.37,2013-08-02 23:18:00,
2013-08-03 00:23:00,59.5,52.3,29.11,WSW,248,0.0,0.0,77,0.00,CLR,SKC,0.00,WeatherDisplay:10.37,2013-08-02 23:23:00,
2013-08-03 00:28:00,59.4,52.1,29.11,SW,225,0.0,0.0,77,0.00,CLR,SKC,0.00,WeatherDisplay:10.37,2013-08-02 23:28:00,
2013-08-03 00:33:00,59.4,52.5,29.10,SW,225,0.0,0.0,78,0.00,CLR,SKC,0.00,WeatherDisplay:10.37,2013-08-02 23:33:00,
2013-08-03 00:38:00,59.4,52.5,29.10,SW,225,0.0,0.0,78,0.00,CLR,SKC,0.00,WeatherDisplay:10.37,2013-08-02 23:38:00,
2013-08-03 00:43:00,59.2,52.3,29.10,SSW,202,0.0,0.0,78,0.00,CLR,SKC,0.00,WeatherDisplay:10.37,2013-08-02 23:43:00,
2013-08-03 00:48:00,59.2,52.3,29.10,SW,225,0.0,0.0,78,0.00,CLR,SKC,0.00,WeatherDisplay:10.37,2013-08-02 23:48:00,
2013-08-03 00:53:00,59.2,52.3,29.11,SW,225,0.0,0.0,78,0.00,CLR,SKC,0.00,WeatherDisplay:10.37,2013-08-02 23:53:00,
2013-08-03 00:58:00,59.2,52.3,29.11,WSW,248,0.0,0.0,78,0.00,CLR,SKC,0.00,WeatherDisplay:10.37,2013-08-02 23:58:00,
2013-08-03 01:03:00,59.2,52.3,29.11,WSW,248,0.0,0.0,78,0.00,CLR,SKC,0.00,WeatherDisplay:10.37,2013-08-03 00:03:00,
2013-08-03 01:08:00,59.2,52.3,29.11,SW,225,0.0,0.0,78,0.00,CLR,SKC,0.00,WeatherDisplay:10.37,2013-08-03 00:08:00,
2013-08-03 01:13:00,59.2,52.3,29.11,SW,225,0.0,0.0,78,0.00,CLR,SKC,0.00,WeatherDisplay:10.37,2013-08-03 00:13:00,
2013-08-03 01:18:00,59.0,52.1,29.11,SW,225,0.0,0.0,78,0.00,CLR,SKC,0.00,WeatherDisplay:10.37,2013-08-03 00:18:00,
2013-08-03 01:23:00,59.2,52.3,29.11,SW,225,0.0,0.0,78,0.00,CLR,SKC,0.00,WeatherDisplay:10.37,2013-08-03 00:23:00,
2013-08-03 01:28:00,58.8,52.0,29.11,West,270,0.0,0.0,78,0.00,CLR,SKC,0.00,WeatherDisplay:10.37,2013-08-03 00:28:00,
2013-08-03 01:33:00,58.8,52.0,29.11,WSW,248,0.0,0.0,78,0.00,CLR,SKC,0.00,WeatherDisplay:10.37,2013-08-03 00:33:00,
2013-08-03 01:38:00,58.8,52.0,29.11,SW,225,0.0,0.0,78,0.00,CLR,SKC,0.00,WeatherDisplay:10.37,2013-08-03 00:38:00,
2013-08-03 01:43:00,58.8,52.0,29.11,SSW,202,0.0,0.0,78,0.00,CLR,SKC,0.00,WeatherDisplay:10.37,2013-08-03 00:43:00,
2013-08-03 01:48:00,58.8,52.0,29.11,WSW,248,0.0,0.0,78,0.00,CLR,SKC,0.00,WeatherDisplay:10.37,2013-08-03 00:48:00,
2013-08-03 01:53:00,58.8,52.0,29.11,WSW,248,0.0,0.0,78,0.00,CLR,SKC,0.00,WeatherDisplay:10.37,2013-08-03 00:53:00,
2013-08-03 01:58:00,58.6,52.1,29.11,SW,225,0.0,0.0,79,0.00,CLR,SKC,0.00,WeatherDisplay:10.37,2013-08-03 00:58:00,
2013-08-03 02:03:00,58.6,52.1,29.10,WSW,248,0.0,0.0,79,0.00,CLR,SKC,0.00,WeatherDisplay:10.37,2013-08-03 01:03:00,
2013-08-03 02:08:00,58.6,52.1,29.10,SW,225,0.0,0.0,79,0.00,CLR,SKC,0.00,WeatherDisplay:10.37,2013-08-03 01:08:00,
2013-08-03 02:13:00,58.6,51.8,29.10,SW,225,0.0,0.0,78,0.00,CLR,SKC,0.00,WeatherDisplay:10.37,2013-08-03 01:13:00,
2013-08-03 02:18:00,58.5,51.6,29.10,SSW,202,0.0,0.0,78,0.00,CLR,SKC,0.00,WeatherDisplay:10.37,2013-08-03 01:18:00,
2013-08-03 02:23:00,58.3,51.4,29.09,SSW,202,0.0,0.0,78,0.00,CLR,SKC,0.00,WeatherDisplay:10.37,2013-08-03 01:23:00,
2013-08-03 02:28:00,58.3,51.4,29.10,NW,315,0.0,0.0,78,0.00,CLR,SKC,0.00,WeatherDisplay:10.37,2013-08-03 01:28:00,
2013-08-03 02:33:00,58.3,51.4,29.10,SW,225,0.0,0.0,78,0.00,CLR,SKC,0.00,WeatherDisplay:10.37,2013-08-03 01:33:00,
2013-08-03 02:38:00,58.3,51.4,29.10,SW,225,0.0,0.0,78,0.00,CLR,SKC,0.00,WeatherDisplay:10.37,2013-08-03 01:38:00,
2013-08-03 02:43:00,58.3,51.4,29.10,SW,225,0.0,0.0,78,0.00,CLR,SKC,0.00,WeatherDisplay:10.37,2013-08-03 01:43:00,
2013-08-03 02:48:00,58.1,51.3,29.10,West,270,0.0,0.0,78,0.00,CLR,SKC,0.00,WeatherDisplay:10.37,2013-08-03 01:48:00,
2013-08-03 02:53:00,58.1,51.3,29.09,SSW,202,0.0,0.0,78,0.00,CLR,SKC,0.00,WeatherDisplay:10.37,2013-08-03 01:53:00,
2013-08-03 02:58:00,57.9,51.1,29.10,SW,225,0.0,0.0,78,0.00,CLR,SKC,0.00,WeatherDisplay:10.37,2013-08-03 01:58:00,
2013-08-03 03:03:00,57.9,51.1,29.10,WSW,248,0.0,0.0,78,0.00,CLR,SKC,0.00,WeatherDisplay:10.37,2013-08-03 02:03:00,
2013-08-03 03:08:00,57.9,51.1,29.10,SSW,202,0.0,0.0,78,0.00,CLR,SKC,0.00,WeatherDisplay:10.37,2013-08-03 02:08:00,
2013-08-03 03:13:00,57.7,50.9,29.10,WSW,248,0.0,0.0,78,0.00,CLR,SKC,0.00,WeatherDisplay:10.37,2013-08-03 02:13:00,
2013-08-03 03:18:00,57.6,50.8,29.10,SW,225,0.0,0.0,78,0.00,CLR,SKC,0.00,WeatherDisplay:10.37,2013-08-03 02:18:00,
2013-08-03 03:23:00,57.4,50.6,29.10,SW,225,0.0,0.0,78,0.00,CLR,SKC,0.00,WeatherDisplay:10.37,2013-08-03 02:23:00,
2013-08-03 03:28:00,57.6,51.1,29.10,WSW,248,0.0,0.0,79,0.00,CLR,SKC,0.00,WeatherDisplay:10.37,2013-08-03 02:28:00,
2013-08-03 03:33:00,57.4,50.6,29.10,SW,225,0.0,0.0,78,0.00,CLR,SKC,0.00,WeatherDisplay:10.37,2013-08-03 02:33:00,
2013-08-03 03:38:00,57.4,50.9,29.10,WSW,248,0.0,0.0,79,0.00,CLR,SKC,0.00,WeatherDisplay:10.37,2013-08-03 02:38:00,
2013-08-03 03:43:00,57.4,50.9,29.10,West,270,0.0,0.0,79,0.00,CLR,SKC,0.00,WeatherDisplay:10.37,2013-08-03 02:43:00,
2013-08-03 03:48:00,57.4,50.9,29.11,WSW,248,0.0,0.0,79,0.00,CLR,SKC,0.00,WeatherDisplay:10.37,2013-08-03 02:48:00,
2013-08-03 03:53:00,57.4,50.9,29.10,SW,225,0.0,0.0,79,0.00,CLR,SKC,0.00,WeatherDisplay:10.37,2013-08-03 02:53:00,
2013-08-03 03:58:00,57.2,50.7,29.10,SW,225,0.0,0.0,79,0.00,CLR,SKC,0.00,WeatherDisplay:10.37,2013-08-03 02:58:00,
2013-08-03 04:03:00,57.0,50.6,29.10,SSW,202,0.0,0.0,79,0.00,CLR,SKC,0.00,WeatherDisplay:10.37,2013-08-03 03:03:00,
2013-08-03 04:08:00,57.0,50.6,29.10,SSW,202,0.0,0.0,79,0.00,CLR,SKC,0.00,WeatherDisplay:10.37,2013-08-03 03:08:00,
2013-08-03 04:13:00,57.0,50.6,29.10,West,270,0.0,0.0,79,0.00,CLR,SKC,0.00,WeatherDisplay:10.37,2013-08-03 03:13:00,
2013-08-03 04:18:00,57.4,50.9,29.11,WNW,292,0.0,0.0,79,0.00,CLR,SKC,0.00,WeatherDisplay:10.37,2013-08-03 03:18:00,
2013-08-03 04:23:00,57.6,51.1,29.11,SW,225,0.0,0.0,79,0.00,CLR,SKC,0.00,WeatherDisplay:10.37,2013-08-03 03:23:00,
2013-08-03 04:28:00,57.9,51.4,29.11,SW,225,0.0,0.0,79,0.00,CLR,SKC,0.00,WeatherDisplay:10.37,2013-08-03 03:28:00,
2013-08-03 04:33:00,57.9,51.4,29.11,SSW,202,0.0,0.0,79,0.00,CLR,SKC,0.00,WeatherDisplay:10.37,2013-08-03 03:33:00,
2013-08-03 04:39:00,58.1,51.3,29.11,WSW,248,0.0,0.0,78,0.00,CLR,SKC,0.00,WeatherDisplay:10.37,2013-08-03 03:39:00,
2013-08-03 04:44:00,58.3,51.4,29.11,West,270,0.0,0.0,78,0.00,CLR,SKC,0.00,WeatherDisplay:10.37,2013-08-03 03:44:00,
2013-08-03 04:48:00,58.3,51.4,29.11,WSW,248,0.0,0.0,78,0.00,CLR,SKC,0.00,WeatherDisplay:10.37,2013-08-03 03:48:00,
2013-08-03 04:54:00,58.3,51.4,29.11,SSW,202,0.0,0.0,78,0.00,CLR,SKC,0.00,WeatherDisplay:10.37,2013-08-03 03:54:00,
2013-08-03 04:59:00,58.1,51.3,29.12,SW,225,0.0,0.0,78,0.00,CLR,SKC,0.00,WeatherDisplay:10.37,2013-08-03 03:59:00,
2013-08-03 05:01:00,58.1,51.3,29.12,SW,225,0.0,0.0,78,0.00,CLR,SKC,0.00,WeatherDisplay:10.37,2013-08-03 04:01:00,
2013-08-03 05:06:00,57.9,51.1,29.11,SW,225,0.0,0.0,78,0.00,CLR,SKC,0.00,WeatherDisplay:10.37,2013-08-03 04:06:00,
2013-08-03 05:11:00,57.9,51.1,29.12,WNW,292,0.0,0.0,78,0.00,CLR,SKC,0.00,WeatherDisplay:10.37,2013-08-03 04:11:00,
2013-08-03 05:17:00,57.9,51.1,29.12,West,270,0.0,0.0,78,0.00,CLR,SKC,0.00,WeatherDisplay:10.37,2013-08-03 04:17:00,
2013-08-03 05:22:00,57.7,50.9,29.12,West,270,0.0,0.0,78,0.00,CLR,SKC,0.00,WeatherDisplay:10.37,2013-08-03 04:22:00,
2013-08-03 05:27:00,57.7,50.9,29.12,WSW,248,0.0,0.0,78,0.00,CLR,SKC,0.00,WeatherDisplay:10.37,2013-08-03 04:27:00,
2013-08-03 05:32:00,57.7,51.3,29.13,West,270,0.0,0.0,79,0.00,CLR,SKC,0.00,WeatherDisplay:10.37,2013-08-03 04:32:00,
2013-08-03 05:37:00,57.6,51.1,29.13,West,270,0.0,0.0,79,0.00,CLR,SKC,0.00,WeatherDisplay:10.37,2013-08-03 04:37:00,
2013-08-03 05:42:00,57.6,51.1,29.13,West,270,0.0,0.0,79,0.00,CLR,SKC,0.00,WeatherDisplay:10.37,2013-08-03 04:42:00,
2013-08-03 05:47:00,57.7,51.3,29.13,SW,225,0.0,0.0,79,0.00,CLR,SKC,0.00,WeatherDisplay:10.37,2013-08-03 04:47:00,
2013-08-03 05:52:00,57.7,51.3,29.12,WSW,248,0.0,0.0,79,0.00,CLR,SKC,0.00,WeatherDisplay:10.37,2013-08-03 04:52:00,
2013-08-03 05:57:00,57.9,51.4,29.13,SW,225,0.0,0.0,79,0.00,CLR,SKC,0.00,WeatherDisplay:10.37,2013-08-03 04:57:00,
2013-08-03 06:02:00,58.1,51.6,29.13,SW,225,0.0,0.0,79,0.00,CLR,SKC,0.00,WeatherDisplay:10.37,2013-08-03 05:02:00,
2013-08-03 06:07:00,58.5,52.0,29.13,SSW,202,0.0,0.0,79,0.00,CLR,SKC,0.00,WeatherDisplay:10.37,2013-08-03 05:07:00,
2013-08-03 06:12:00,58.5,52.0,29.13,West,270,0.0,0.0,79,0.00,CLR,SKC,0.00,WeatherDisplay:10.37,2013-08-03 05:12:00,
2013-08-03 06:17:00,58.5,52.0,29.13,WNW,292,0.0,0.0,79,0.00,CLR,SKC,0.00,WeatherDisplay:10.37,2013-08-03 05:17:00,
2013-08-03 06:22:00,58.6,51.8,29.14,SW,225,0.0,0.0,78,0.00,CLR,SKC,0.00,WeatherDisplay:10.37,2013-08-03 05:22:00,
2013-08-03 06:27:00,58.6,51.8,29.14,NW,315,0.0,0.0,78,0.00,CLR,SKC,0.00,WeatherDisplay:10.37,2013-08-03 05:27:00,
2013-08-03 06:32:00,58.8,52.0,29.13,WNW,292,0.0,0.0,78,0.00,CLR,SKC,0.00,WeatherDisplay:10.37,2013-08-03 05:32:00,
2013-08-03 06:37:00,58.8,52.0,29.13,SW,225,0.0,0.0,78,0.00,CLR,SKC,0.00,WeatherDisplay:10.37,2013-08-03 05:37:00,
2013-08-03 06:42:00,58.8,52.0,29.13,WSW,248,0.0,0.0,78,0.00,CLR,SKC,0.00,WeatherDisplay:10.37,2013-08-03 05:42:00,
2013-08-03 06:47:00,58.6,51.8,29.13,South,180,0.0,0.0,78,0.00,CLR,SKC,0.00,WeatherDisplay:10.37,2013-08-03 05:47:00,
2013-08-03 06:52:00,58.6,51.8,29.14,WSW,248,0.0,0.0,78,0.00,CLR,SKC,0.00,WeatherDisplay:10.37,2013-08-03 05:52:00,
2013-08-03 06:57:00,58.5,52.0,29.14,West,270,0.0,0.0,79,0.00,CLR,SKC,0.00,WeatherDisplay:10.37,2013-08-03 05:57:00,
2013-08-03 07:02:00,58.1,51.6,29.14,WNW,292,0.0,0.0,79,0.00,CLR,SKC,0.00,WeatherDisplay:10.37,2013-08-03 06:02:00,
2013-08-03 07:07:00,57.9,51.4,29.13,SW,225,0.0,0.0,79,0.00,CLR,SKC,0.00,WeatherDisplay:10.37,2013-08-03 06:07:00,
2013-08-03 07:12:00,57.7,51.3,29.13,WNW,292,0.0,0.0,79,0.00,CLR,SKC,0.00,WeatherDisplay:10.37,2013-08-03 06:12:00,
2013-08-03 07:17:00,57.4,51.3,29.14,WNW,292,0.0,0.0,80,0.00,CLR,SKC,0.00,WeatherDisplay:10.37,2013-08-03 06:17:00,
2013-08-03 07:22:00,57.4,51.3,29.14,South,180,0.0,0.0,80,0.00,CLR,SKC,0.00,WeatherDisplay:10.37,2013-08-03 06:22:00,
2013-08-03 07:28:00,57.7,51.9,29.15,WSW,248,0.0,0.0,81,0.00,CLR,SKC,0.00,WeatherDisplay:10.37,2013-08-03 06:28:00,
2013-08-03 07:33:00,57.7,51.9,29.14,SW,225,0.0,0.0,81,0.00,CLR,SKC,0.00,WeatherDisplay:10.37,2013-08-03 06:33:00,
2013-08-03 07:38:00,57.9,52.1,29.14,SW,225,0.0,0.0,81,0.00,CLR,SKC,0.00,WeatherDisplay:10.37,2013-08-03 06:38:00,
2013-08-03 07:43:00,58.1,52.3,29.15,SSW,202,0.0,0.0,81,0.00,CLR,SKC,0.00,WeatherDisplay:10.37,2013-08-03 06:43:00,
2013-08-03 07:48:00,58.1,52.3,29.15,SW,225,0.0,0.0,81,0.00,CLR,SKC,0.00,WeatherDisplay:10.37,2013-08-03 06:48:00,
2013-08-03 07:53:00,58.1,52.3,29.15,SW,225,0.0,0.0,81,0.00,CLR,SKC,0.00,WeatherDisplay:10.37,2013-08-03 06:53:00,
2013-08-03 07:58:00,57.9,52.1,29.15,WNW,292,0.0,0.0,81,0.00,CLR,SKC,0.00,WeatherDisplay:10.37,2013-08-03 06:58:00,
2013-08-03 08:03:00,57.9,52.1,29.15,NW,315,0.0,0.0,81,0.00,CLR,SKC,0.00,WeatherDisplay:10.37,2013-08-03 07:03:00,
2013-08-03 08:08:00,57.9,52.1,29.15,WNW,292,0.0,0.0,81,0.00,CLR,SKC,0.00,WeatherDisplay:10.37,2013-08-03 07:08:00,
2013-08-03 08:13:00,58.1,52.3,29.15,NNW,338,0.0,0.0,81,0.00,CLR,SKC,0.00,WeatherDisplay:10.37,2013-08-03 07:13:00,
2013-08-03 08:18:00,58.1,52.3,29.15,WSW,248,0.0,0.0,81,0.00,CLR,SKC,0.00,WeatherDisplay:10.37,2013-08-03 07:18:00,
2013-08-03 08:23:00,57.9,52.1,29.16,NW,315,0.0,0.0,81,0.00,CLR,SKC,0.00,WeatherDisplay:10.37,2013-08-03 07:23:00,
2013-08-03 08:28:00,58.3,52.5,29.16,SW,225,0.0,0.0,81,0.00,CLR,SKC,0.00,WeatherDisplay:10.37,2013-08-03 07:28:00,
2013-08-03 08:33:00,58.1,52.3,29.16,NW,315,0.0,0.0,81,0.00,CLR,SKC,0.00,WeatherDisplay:10.37,2013-08-03 07:33:00,
2013-08-03 08:38:00,57.9,52.1,29.16,SSW,202,0.0,0.0,81,0.00,CLR,SKC,0.00,WeatherDisplay:10.37,2013-08-03 07:38:00,
2013-08-03 08:43:00,57.9,52.5,29.16,WNW,292,0.0,0.0,82,0.00,CLR,SKC,0.00,WeatherDisplay:10.37,2013-08-03 07:43:00,
2013-08-03 08:48:00,58.3,52.8,29.16,WNW,292,0.0,0.0,82,0.00,CLR,SKC,0.00,WeatherDisplay:10.37,2013-08-03 07:48:00,
2013-08-03 08:53:00,58.8,53.3,29.17,WSW,248,0.0,0.0,82,0.00,CLR,SKC,0.00,WeatherDisplay:10.37,2013-08-03 07:53:00,
2013-08-03 08:58:00,58.8,53.0,29.17,SW,225,0.0,0.0,81,0.00,CLR,SKC,0.00,WeatherDisplay:10.37,2013-08-03 07:58:00,
2013-08-03 09:03:00,59.2,53.0,29.17,SSW,202,0.0,0.0,80,0.00,CLR,SKC,0.00,WeatherDisplay:10.37,2013-08-03 08:03:00,
2013-08-03 09:08:00,59.4,53.2,29.17,WNW,292,0.0,0.0,80,0.00,CLR,SKC,0.00,WeatherDisplay:10.37,2013-08-03 08:08:00,
2013-08-03 09:13:00,59.9,53.4,29.17,WSW,248,0.0,0.0,79,0.00,CLR,SKC,0.00,WeatherDisplay:10.37,2013-08-03 08:13:00,
2013-08-03 09:18:00,60.1,53.2,29.18,West,270,0.0,0.0,78,0.00,CLR,SKC,0.00,WeatherDisplay:10.37,2013-08-03 08:18:00,
2013-08-03 09:23:00,60.4,53.2,29.18,West,270,0.0,0.0,77,0.00,CLR,SKC,0.00,WeatherDisplay:10.37,2013-08-03 08:23:00,
2013-08-03 09:28:00,60.4,53.2,29.17,WNW,292,0.0,0.0,77,0.00,CLR,SKC,0.00,WeatherDisplay:10.37,2013-08-03 08:28:00,
2013-08-03 09:33:00,60.6,53.0,29.18,SW,225,0.0,0.0,76,0.00,CLR,SKC,0.00,WeatherDisplay:10.37,2013-08-03 08:33:00,
2013-08-03 09:38:00,61.0,53.4,29.18,SW,225,0.0,0.0,76,0.00,CLR,SKC,0.00,WeatherDisplay:10.37,2013-08-03 08:38:00,
2013-08-03 09:43:00,61.5,53.5,29.18,NW,315,0.0,0.0,75,0.00,CLR,SKC,0.00,WeatherDisplay:10.37,2013-08-03 08:43:00,
2013-08-03 09:48:00,61.5,53.2,29.18,SW,225,0.0,0.0,74,0.00,CLR,SKC,0.00,WeatherDisplay:10.37,2013-08-03 08:48:00,
2013-08-03 09:53:00,61.7,53.0,29.18,West,270,0.0,0.0,73,0.00,CLR,SKC,0.00,WeatherDisplay:10.37,2013-08-03 08:53:00,
2013-08-03 09:58:00,61.9,52.8,29.18,West,270,0.0,0.0,72,0.00,CLR,SKC,0.00,WeatherDisplay:10.37,2013-08-03 08:58:00,
2013-08-03 10:03:00,61.7,52.6,29.19,SW,225,0.0,0.0,72,0.00,CLR,SKC,0.00,WeatherDisplay:10.37,2013-08-03 09:03:00,
2013-08-03 10:08:00,61.5,52.4,29.19,South,180,0.0,0.0,72,0.00,CLR,SKC,0.00,WeatherDisplay:10.37,2013-08-03 09:08:00,
2013-08-03 10:13:00,61.7,52.6,29.19,West,270,0.0,0.0,72,0.00,CLR,SKC,0.00,WeatherDisplay:10.37,2013-08-03 09:13:00,
2013-08-03 10:18:00,61.7,52.2,29.20,SSW,202,0.0,0.0,71,0.00,CLR,SKC,0.00,WeatherDisplay:10.37,2013-08-03 09:18:00,
2013-08-03 10:23:00,61.9,52.4,29.20,WNW,292,0.0,0.0,71,0.00,CLR,SKC,0.00,WeatherDisplay:10.37,2013-08-03 09:23:00,
2013-08-03 10:28:00,62.6,53.1,29.20,NW,315,0.0,0.0,71,0.00,CLR,SKC,0.00,WeatherDisplay:10.37,2013-08-03 09:28:00,
2013-08-03 10:33:00,63.1,53.2,29.20,WSW,248,0.0,0.0,70,0.00,CLR,SKC,0.00,WeatherDisplay:10.37,2013-08-03 09:33:00,
2013-08-03 10:38:00,63.3,53.0,29.20,NNE,22,0.0,0.0,69,0.00,CLR,SKC,0.00,WeatherDisplay:10.37,2013-08-03 09:38:00,
2013-08-03 10:43:00,63.7,53.7,29.20,WSW,248,0.0,0.0,70,0.00,CLR,SKC,0.00,WeatherDisplay:10.37,2013-08-03 09:43:00,
2013-08-03 10:48:00,64.2,53.8,29.21,West,270,0.0,0.0,69,0.00,CLR,SKC,0.00,WeatherDisplay:10.37,2013-08-03 09:48:00,
2013-08-03 10:53:00,64.8,54.3,29.21,WSW,248,0.0,0.0,69,0.00,CLR,SKC,0.00,WeatherDisplay:10.37,2013-08-03 09:53:00,
2013-08-03 10:58:00,64.8,53.1,29.21,NW,315,0.0,0.0,66,0.00,CLR,SKC,0.00,WeatherDisplay:10.37,2013-08-03 09:58:00,
2013-08-03 11:03:00,64.6,53.0,29.21,SSW,202,0.0,0.0,66,0.00,CLR,SKC,0.00,WeatherDisplay:10.37,2013-08-03 10:03:00,
2013-08-03 11:08:00,64.6,53.4,29.21,West,270,0.0,0.0,67,0.00,CLR,SKC,0.00,WeatherDisplay:10.37,2013-08-03 10:08:00,
2013-08-03 11:13:00,64.4,53.2,29.21,NNW,338,0.0,0.0,67,0.00,CLR,SKC,0.00,WeatherDisplay:10.37,2013-08-03 10:13:00,
2013-08-03 11:18:00,63.7,52.5,29.21,SW,225,0.0,0.0,67,0.00,CLR,SKC,0.00,WeatherDisplay:10.37,2013-08-03 10:18:00,
2013-08-03 11:23:00,63.0,52.2,29.22,WSW,248,0.0,0.0,68,0.00,CLR,SKC,0.00,WeatherDisplay:10.37,2013-08-03 10:23:00,
2013-08-03 11:28:00,62.8,52.1,29.22,NW,315,0.0,0.0,68,0.00,CLR,SKC,0.00,WeatherDisplay:10.37,2013-08-03 10:28:00,
2013-08-03 11:34:00,62.8,52.1,29.22,SW,225,0.0,0.0,68,0.00,CLR,SKC,0.00,WeatherDisplay:10.37,2013-08-03 10:34:00,
2013-08-03 11:39:00,62.8,52.1,29.22,SSW,202,0.0,0.0,68,0.00,CLR,SKC,0.00,WeatherDisplay:10.37,2013-08-03 10:39:00,
2013-08-03 11:44:00,63.3,52.6,29.22,SW,225,0.0,0.0,68,0.00,CLR,SKC,0.00,WeatherDisplay:10.37,2013-08-03 10:44:00,
2013-08-03 11:48:00,64.0,53.3,29.23,SW,225,0.0,0.0,68,0.00,CLR,SKC,0.00,WeatherDisplay:10.37,2013-08-03 10:48:00,
2013-08-03 11:54:00,64.6,53.0,29.23,West,270,0.0,0.0,66,0.00,CLR,SKC,0.00,WeatherDisplay:10.37,2013-08-03 10:54:00,
2013-08-03 11:59:00,65.1,53.5,29.23,SW,225,0.0,0.0,66,0.00,CLR,SKC,0.00,WeatherDisplay:10.37,2013-08-03 10:59:00,
2013-08-03 12:03:00,65.1,53.1,29.23,SSW,202,0.0,0.0,65,0.00,CLR,SKC,0.00,WeatherDisplay:10.37,2013-08-03 11:03:00,
2013-08-03 12:09:00,66.4,54.7,29.23,SSW,202,0.0,0.0,66,0.00,CLR,SKC,0.00,WeatherDisplay:10.37,2013-08-03 11:09:00,
2013-08-03 12:14:00,66.4,53.8,29.23,NW,315,0.0,0.0,64,0.00,CLR,SKC,0.00,WeatherDisplay:10.37,2013-08-03 11:14:00,
2013-08-03 12:19:00,69.4,56.7,29.24,WSW,248,0.0,0.0,64,0.00,CLR,SKC,0.00,WeatherDisplay:10.37,2013-08-03 11:19:00,
2013-08-03 12:24:00,71.2,56.2,29.24,SSW,202,0.0,0.0,59,0.00,CLR,SKC,0.00,WeatherDisplay:10.37,2013-08-03 11:24:00,
2013-08-03 12:28:00,70.9,54.9,29.24,WNW,292,0.0,0.0,57,0.00,CLR,SKC,0.00,WeatherDisplay:10.37,2013-08-03 11:28:00,
2013-08-03 12:34:00,69.6,53.7,29.25,WNW,292,0.0,0.0,57,0.00,CLR,SKC,0.00,WeatherDisplay:10.37,2013-08-03 11:34:00,
2013-08-03 12:39:00,67.6,53.3,29.25,WNW,292,0.0,0.0,60,0.00,CLR,SKC,0.00,WeatherDisplay:10.37,2013-08-03 11:39:00,
2013-08-03 12:44:00,64.9,52.9,29.25,NNW,338,0.0,0.0,65,0.00,CLR,SKC,0.00,WeatherDisplay:10.37,2013-08-03 11:44:00,
2013-08-03 12:49:00,64.6,54.2,29.25,SW,225,0.0,0.0,69,0.00,CLR,SKC,0.00,WeatherDisplay:10.37,2013-08-03 11:49:00,
2013-08-03 12:54:00,65.1,55.1,29.25,West,270,0.0,0.0,70,0.00,CLR,SKC,0.00,WeatherDisplay:10.37,2013-08-03 11:54:00,
2013-08-03 12:59:00,65.1,53.9,29.26,West,270,0.0,0.0,67,0.00,CLR,SKC,0.00,WeatherDisplay:10.37,2013-08-03 11:59:00,
2013-08-03 13:04:00,64.2,53.0,29.26,WNW,292,0.0,0.0,67,0.00,CLR,SKC,0.00,WeatherDisplay:10.37,2013-08-03 12:04:00,
2013-08-03 13:09:00,64.0,52.9,29.27,WSW,248,0.0,0.0,67,0.00,CLR,SKC,0.00,WeatherDisplay:10.37,2013-08-03 12:09:00,
2013-08-03 13:14:00,62.6,53.1,29.26,West,270,0.0,0.0,71,0.00,CLR,SKC,0.00,WeatherDisplay:10.37,2013-08-03 12:14:00,
2013-08-03 13:19:00,62.4,53.3,29.26,WSW,248,0.0,0.0,72,0.00,CLR,SKC,0.00,WeatherDisplay:10.37,2013-08-03 12:19:00,
2013-08-03 13:24:00,62.1,53.3,29.26,WNW,292,0.0,0.0,73,0.00,CLR,SKC,0.00,WeatherDisplay:10.37,2013-08-03 12:24:00,
2013-08-03 13:29:00,62.2,53.1,29.26,SSW,202,0.0,0.0,72,0.00,CLR,SKC,0.00,WeatherDisplay:10.37,2013-08-03 12:29:00,
2013-08-03 13:34:00,62.4,53.3,29.26,South,180,0.0,0.0,72,0.00,CLR,SKC,0.00,WeatherDisplay:10.37,2013-08-03 12:34:00,
2013-08-03 13:39:00,63.7,54.5,29.27,WSW,248,0.0,0.0,72,0.00,CLR,SKC,0.00,WeatherDisplay:10.37,2013-08-03 12:39:00,
2013-08-03 13:44:00,64.2,54.2,29.26,West,270,0.0,0.0,70,0.00,CLR,SKC,0.00,WeatherDisplay:10.37,2013-08-03 12:44:00,
2013-08-03 13:49:00,64.8,53.9,29.27,SSW,202,0.0,0.0,68,0.00,CLR,SKC,0.00,WeatherDisplay:10.37,2013-08-03 12:49:00,
2013-08-03 13:54:00,65.1,53.5,29.28,West,270,0.0,0.0,66,0.00,CLR,SKC,0.00,WeatherDisplay:10.37,2013-08-03 12:54:00,
2013-08-03 13:59:00,65.3,53.6,29.28,WNW,292,0.0,0.0,66,0.00,CLR,SKC,0.00,WeatherDisplay:10.37,2013-08-03 12:59:00,
2013-08-03 14:04:00,65.7,53.6,29.28,SSW,202,0.0,0.0,65,0.00,CLR,SKC,0.00,WeatherDisplay:10.37,2013-08-03 13:04:00,
2013-08-03 14:09:00,65.5,52.5,29.28,WNW,292,0.0,0.0,63,0.00,CLR,SKC,0.00,WeatherDisplay:10.37,2013-08-03 13:09:00,
2013-08-03 14:14:00,65.5,52.5,29.28,WNW,292,0.0,0.0,63,0.00,CLR,SKC,0.00,WeatherDisplay:10.37,2013-08-03 13:14:00,
2013-08-03 14:19:00,65.7,52.3,29.29,WNW,292,0.0,0.0,62,0.00,CLR,SKC,0.00,WeatherDisplay:10.37,2013-08-03 13:19:00,
2013-08-03 14:24:00,65.5,52.1,29.29,WSW,248,0.0,0.0,62,0.00,CLR,SKC,0.00,WeatherDisplay:10.37,2013-08-03 13:24:00,
2013-08-03 14:29:00,66.0,52.6,29.29,WNW,292,0.0,0.0,62,0.00,CLR,SKC,0.00,WeatherDisplay:10.37,2013-08-03 13:29:00,
2013-08-03 14:34:00,65.5,51.7,29.29,WSW,248,0.0,0.0,61,0.00,CLR,SKC,0.00,WeatherDisplay:10.37,2013-08-03 13:34:00,
2013-08-03 14:39:00,64.9,51.2,29.30,WSW,248,0.0,0.0,61,0.00,CLR,SKC,0.00,WeatherDisplay:10.37,2013-08-03 13:39:00,
2013-08-03 14:44:00,64.8,51.4,29.30,NNW,338,0.0,0.0,62,0.00,CLR,SKC,0.00,WeatherDisplay:10.37,2013-08-03 13:44:00,
2013-08-03 14:49:00,64.4,52.0,29.30,WNW,292,0.0,0.0,64,0.00,CLR,SKC,0.00,WeatherDisplay:10.37,2013-08-03 13:49:00,
2013-08-03 14:54:00,64.2,51.4,29.29,SSW,202,0.0,0.0,63,0.00,CLR,SKC,0.00,WeatherDisplay:10.37,2013-08-03 13:54:00,
2013-08-03 14:59:00,64.2,51.4,29.29,West,270,0.0,0.0,63,0.00,CLR,SKC,0.00,WeatherDisplay:10.37,2013-08-03 13:59:00,
2013-08-03 15:04:00,64.0,51.6,29.30,SSW,202,0.0,0.0,64,0.00,CLR,SKC,0.00,WeatherDisplay:10.37,2013-08-03 14:04:00,
2013-08-03 15:09:00,64.2,51.4,29.30,WNW,292,0.0,0.0,63,0.00,CLR,SKC,0.00,WeatherDisplay:10.37,2013-08-03 14:09:00,
2013-08-03 15:14:00,64.2,51.4,29.30,West,270,0.0,0.0,63,0.00,CLR,SKC,0.00,WeatherDisplay:10.37,2013-08-03 14:14:00,
2013-08-03 15:19:00,64.2,51.4,29.31,WNW,292,0.0,0.0,63,0.00,CLR,SKC,0.00,WeatherDisplay:10.37,2013-08-03 14:19:00,
2013-08-03 15:24:00,64.2,51.4,29.30,West,270,0.0,0.0,63,0.00,CLR,SKC,0.00,WeatherDisplay:10.37,2013-08-03 14:24:00,
2013-08-03 15:29:00,64.6,52.1,29.31,NW,315,0.0,0.0,64,0.00,CLR,SKC,0.00,WeatherDisplay:10.37,2013-08-03 14:29:00,
2013-08-03 15:34:00,64.8,52.3,29.31,NNW,338,0.0,0.0,64,0.00,CLR,SKC,0.00,WeatherDisplay:10.37,2013-08-03 14:34:00,
2013-08-03 15:39:00,64.8,51.4,29.31,NNW,338,0.0,0.0,62,0.00,CLR,SKC,0.00,WeatherDisplay:10.37,2013-08-03 14:39:00,
2013-08-03 15:44:00,64.9,51.2,29.30,NW,315,0.0,0.0,61,0.00,CLR,SKC,0.00,WeatherDisplay:10.37,2013-08-03 14:44:00,
2013-08-03 15:49:00,65.1,51.3,29.31,West,270,0.0,0.0,61,0.00,CLR,SKC,0.00,WeatherDisplay:10.37,2013-08-03 14:49:00,
2013-08-03 15:54:00,65.1,50.9,29.31,WSW,248,0.0,0.0,60,0.00,CLR,SKC,0.00,WeatherDisplay:10.37,2013-08-03 14:54:00,
2013-08-03 15:59:00,65.3,51.1,29.31,NW,315,0.0,0.0,60,0.00,CLR,SKC,0.00,WeatherDisplay:10.37,2013-08-03 14:59:00,
2013-08-03 16:04:00,65.3,51.1,29.31,NW,315,0.0,0.0,60,0.00,CLR,SKC,0.00,WeatherDisplay:10.37,2013-08-03 15:04:00,
2013-08-03 16:09:00,65.7,51.4,29.31,WNW,292,0.0,0.0,60,0.00,CLR,SKC,0.00,WeatherDisplay:10.37,2013-08-03 15:09:00,
2013-08-03 16:14:00,66.0,51.7,29.31,SW,225,0.0,0.0,60,0.00,CLR,SKC,0.00,WeatherDisplay:10.37,2013-08-03 15:14:00,
2013-08-03 16:19:00,66.4,52.1,29.31,SW,225,0.0,0.0,60,0.00,CLR,SKC,0.00,WeatherDisplay:10.37,2013-08-03 15:19:00,
2013-08-03 16:24:00,66.7,52.0,29.31,WNW,292,0.0,0.0,59,0.00,CLR,SKC,0.00,WeatherDisplay:10.37,2013-08-03 15:24:00,
2013-08-03 16:29:00,66.7,52.0,29.31,West,270,0.0,0.0,59,0.00,CLR,SKC,0.00,WeatherDisplay:10.37,2013-08-03 15:29:00,
2013-08-03 16:35:00,66.7,52.0,29.31,West,270,0.0,0.0,59,0.00,CLR,SKC,0.00,WeatherDisplay:10.37,2013-08-03 15:35:00,
2013-08-03 16:40:00,66.9,51.7,29.31,NW,315,0.0,0.0,58,0.00,CLR,SKC,0.00,WeatherDisplay:10.37,2013-08-03 15:40:00,
2013-08-03 16:44:00,66.7,51.5,29.31,WSW,248,0.0,0.0,58,0.00,CLR,SKC,0.00,WeatherDisplay:10.37,2013-08-03 15:44:00,
2013-08-03 16:50:00,66.6,51.3,29.31,WSW,248,0.0,0.0,58,0.00,CLR,SKC,0.00,WeatherDisplay:10.37,2013-08-03 15:50:00,
2013-08-03 16:55:00,66.6,51.3,29.30,West,269,0.0,0.0,58,0.00,CLR,SKC,0.00,WeatherDisplay:10.37,2013-08-03 15:55:00,
2013-08-03 17:00:00,66.7,51.5,29.31,WSW,246,0.0,0.0,58,0.00,CLR,SKC,0.00,WeatherDisplay:10.37,2013-08-03 16:00:00,
2013-08-03 17:04:00,66.7,51.0,29.31,SW,233,0.0,0.0,57,0.00,CLR,SKC,0.00,WeatherDisplay:10.37,2013-08-03 16:04:00,
2013-08-03 17:10:00,66.4,50.7,29.31,WSW,237,0.0,0.0,57,0.00,CLR,SKC,0.00,WeatherDisplay:10.37,2013-08-03 16:10:00,
2013-08-03 17:14:00,66.0,50.8,29.32,SW,225,0.0,0.0,58,0.00,CLR,SKC,0.00,WeatherDisplay:10.37,2013-08-03 16:14:00,
2013-08-03 17:20:00,66.0,50.8,29.32,WSW,237,0.0,0.0,58,0.00,CLR,SKC,0.00,WeatherDisplay:10.37,2013-08-03 16:20:00,
2013-08-03 17:25:00,66.0,50.8,29.32,West,270,0.0,0.0,58,0.00,CLR,SKC,0.00,WeatherDisplay:10.37,2013-08-03 16:25:00,
2013-08-03 17:29:00,66.2,51.0,29.32,SSW,202,0.0,0.0,58,0.00,CLR,SKC,0.00,WeatherDisplay:10.37,2013-08-03 16:29:00,
2013-08-03 17:35:00,66.4,50.7,29.32,WSW,244,0.0,0.0,57,0.00,CLR,SKC,0.00,WeatherDisplay:10.37,2013-08-03 16:35:00,
2013-08-03 17:39:00,66.2,51.0,29.32,South,180,0.0,0.0,58,0.00,CLR,SKC,0.00,WeatherDisplay:10.37,2013-08-03 16:39:00,
2013-08-03 17:45:00,66.0,50.8,29.32,SW,230,0.0,0.0,58,0.00,CLR,SKC,0.00,WeatherDisplay:10.37,2013-08-03 16:45:00,
2013-08-03 17:50:00,66.4,51.2,29.32,West,265,0.0,0.0,58,0.00,CLR,SKC,0.00,WeatherDisplay:10.37,2013-08-03 16:50:00,
2013-08-03 17:54:00,65.8,50.6,29.32,SW,225,0.0,0.0,58,0.00,CLR,SKC,0.00,WeatherDisplay:10.37,2013-08-03 16:54:00,
2013-08-03 18:00:00,65.8,51.1,29.33,WSW,250,0.0,0.0,59,0.00,CLR,SKC,0.00,WeatherDisplay:10.37,2013-08-03 17:00:00,
2013-08-03 18:04:00,65.5,50.8,29.33,NW,315,0.0,0.0,59,0.00,CLR,SKC,0.00,WeatherDisplay:10.37,2013-08-03 17:04:00,
2013-08-03 18:10:00,65.5,50.8,29.33,SW,225,0.0,0.0,59,0.00,CLR,SKC,0.00,WeatherDisplay:10.37,2013-08-03 17:10:00,
2013-08-03 18:14:00,65.5,50.3,29.33,WNW,282,0.0,0.0,58,0.00,CLR,SKC,0.00,WeatherDisplay:10.37,2013-08-03 17:14:00,
2013-08-03 18:20:00,65.8,50.6,29.33,SW,225,0.0,0.0,58,0.00,CLR,SKC,0.00,WeatherDisplay:10.37,2013-08-03 17:20:00,
2013-08-03 18:25:00,66.9,51.2,29.33,WNW,292,0.0,0.0,57,0.00,CLR,SKC,0.00,WeatherDisplay:10.37,2013-08-03 17:25:00,
2013-08-03 18:30:00,67.7,51.4,29.33,West,266,0.0,0.0,56,0.00,CLR,SKC,0.00,WeatherDisplay:10.37,2013-08-03 17:30:00,
2013-08-03 18:35:00,67.8,51.1,29.33,SSE,158,0.0,0.0,55,0.00,CLR,SKC,0.00,WeatherDisplay:10.37,2013-08-03 17:35:00,
2013-08-03 18:39:00,67.3,50.1,29.33,West,275,0.0,0.0,54,0.00,CLR,SKC,0.00,WeatherDisplay:10.37,2013-08-03 17:39:00,
2013-08-03 18:40:00,67.3,50.1,29.33,SSW,202,0.0,0.0,54,0.00,CLR,SKC,0.00,WeatherDisplay:10.37,2013-08-03 17:40:00,
2013-08-03 18:45:00,67.1,50.4,29.33,WSW,246,0.0,0.0,55,0.00,CLR,SKC,0.00,WeatherDisplay:10.37,2013-08-03 17:45:00,
2013-08-03 18:50:00,69.1,51.7,29.33,WNW,292,0.0,0.0,54,0.00,CLR,SKC,0.00,WeatherDisplay:10.37,2013-08-03 17:50:00,
2013-08-03 18:55:00,71.4,53.9,29.33,West,276,0.0,0.0,54,0.00,CLR,SKC,0.00,WeatherDisplay:10.37,2013-08-03 17:55:00,
2013-08-03 19:00:00,73.8,54.0,29.33,West,270,0.0,0.0,50,0.00,CLR,SKC,0.00,WeatherDisplay:10.37,2013-08-03 18:00:00,
2013-08-03 19:05:00,74.3,53.3,29.33,SW,225,0.0,0.0,48,0.00,CLR,SKC,0.00,WeatherDisplay:10.37,2013-08-03 18:05:00,
2013-08-03 19:10:00,74.7,53.7,29.33,West,265,0.0,0.0,48,0.00,CLR,SKC,0.00,WeatherDisplay:10.37,2013-08-03 18:10:00,
2013-08-03 19:15:00,73.6,52.1,29.33,WSW,248,0.0,0.0,47,0.00,CLR,SKC,0.00,WeatherDisplay:10.37,2013-08-03 18:15:00,
2013-08-03 19:19:00,73.2,52.3,29.33,SSW,202,0.0,0.0,48,0.00,CLR,SKC,0.00,WeatherDisplay:10.37,2013-08-03 18:19:00,
2013-08-03 19:25:00,73.2,52.3,29.34,WSW,256,0.0,0.0,48,0.00,CLR,SKC,0.00,WeatherDisplay:10.37,2013-08-03 18:25:00,
2013-08-03 19:30:00,73.9,52.4,29.33,WNW,292,0.0,0.0,47,0.00,CLR,SKC,0.00,WeatherDisplay:10.37,2013-08-03 18:30:00,
2013-08-03 19:35:00,73.9,52.4,29.33,West,262,0.0,0.0,47,0.00,CLR,SKC,0.00,WeatherDisplay:10.37,2013-08-03 18:35:00,
2013-08-03 19:40:00,73.6,52.1,29.33,WNW,299,0.0,0.0,47,0.00,CLR,SKC,0.00,WeatherDisplay:10.37,2013-08-03 18:40:00,
2013-08-03 19:45:00,71.6,50.9,29.34,WNW,292,0.0,0.0,48,0.00,CLR,SKC,0.00,WeatherDisplay:10.37,2013-08-03 18:45:00,
2013-08-03 19:50:00,68.7,49.3,29.34,West,274,0.0,0.0,50,0.00,CLR,SKC,0.00,WeatherDisplay:10.37,2013-08-03 18:50:00,
2013-08-03 19:55:00,67.3,48.5,29.34,WSW,253,0.0,0.0,51,0.00,CLR,SKC,0.00,WeatherDisplay:10.37,2013-08-03 18:55:00,
2013-08-03 20:00:00,65.7,48.6,29.34,West,270,0.0,0.0,54,0.00,CLR,SKC,0.00,WeatherDisplay:10.37,2013-08-03 19:00:00,
2013-08-03 20:04:00,65.3,48.7,29.35,SSW,202,0.0,0.0,55,0.00,CLR,SKC,0.00,WeatherDisplay:10.37,2013-08-03 19:04:00,
2013-08-03 20:10:00,64.0,48.5,29.36,SW,236,0.0,0.0,57,0.00,CLR,SKC,0.00,WeatherDisplay:10.37,2013-08-03 19:10:00,
2013-08-03 20:14:00,62.9,48.8,29.36,WSW,248,0.0,0.0,60,0.00,CLR,SKC,0.00,WeatherDisplay:10.37,2013-08-03 19:14:00,
2013-08-03 20:15:00,62.4,48.3,29.36,WNW,292,0.0,0.0,60,0.00,CLR,SKC,0.00,WeatherDisplay:10.37,2013-08-03 19:15:00,
2013-08-03 20:20:00,61.5,48.8,29.35,SW,225,0.0,0.0,63,0.00,CLR,SKC,0.00,WeatherDisplay:10.37,2013-08-03 19:20:00,
2013-08-03 20:24:00,61.0,48.7,29.36,West,270,0.0,0.0,64,0.00,CLR,SKC,0.00,WeatherDisplay:10.37,2013-08-03 19:24:00,
2013-08-03 20:30:00,60.6,49.2,29.36,WSW,248,0.0,0.0,66,0.00,CLR,SKC,0.00,WeatherDisplay:10.37,2013-08-03 19:30:00,
2013-08-03 20:35:00,60.2,49.2,29.36,WNW,299,0.0,0.0,67,0.00,CLR,SKC,0.00,WeatherDisplay:10.37,2013-08-03 19:35:00,
2013-08-03 20:39:00,59.9,48.9,29.36,WNW,289,0.0,0.0,67,0.00,CLR,SKC,0.00,WeatherDisplay:10.37,2013-08-03 19:39:00,
2013-08-03 20:44:00,59.7,49.5,29.36,West,270,0.0,0.0,69,0.00,CLR,SKC,0.00,WeatherDisplay:10.37,2013-08-03 19:44:00,
2013-08-03 20:50:00,59.5,49.4,29.36,West,277,0.0,0.0,69,0.00,CLR,SKC,0.00,WeatherDisplay:10.37,2013-08-03 19:50:00,
2013-08-03 20:55:00,59.4,49.6,29.36,West,263,0.0,0.0,70,0.00,CLR,SKC,0.00,WeatherDisplay:10.37,2013-08-03 19:55:00,
2013-08-03 21:00:00,59.4,49.6,29.36,West,260,0.0,0.0,70,0.00,CLR,SKC,0.00,WeatherDisplay:10.37,2013-08-03 20:00:00,
2013-08-03 21:04:00,59.0,50.0,29.36,WSW,237,0.0,0.0,72,0.00,CLR,SKC,0.00,WeatherDisplay:10.37,2013-08-03 20:04:00,
2013-08-03 21:10:00,58.8,49.8,29.36,SW,225,0.0,0.0,72,0.00,CLR,SKC,0.00,WeatherDisplay:10.37,2013-08-03 20:10:00,
2013-08-03 21:15:00,58.8,49.8,29.36,West,259,0.0,0.0,72,0.00,CLR,SKC,0.00,WeatherDisplay:10.37,2013-08-03 20:15:00,
2013-08-03 21:19:00,58.8,50.2,29.36,WSW,248,0.0,0.0,73,0.00,CLR,SKC,0.00,WeatherDisplay:10.37,2013-08-03 20:19:00,
2013-08-03 21:25:00,58.8,50.5,29.36,West,265,0.0,0.0,74,0.00,CLR,SKC,0.00,WeatherDisplay:10.37,2013-08-03 20:25:00,
2013-08-03 21:30:00,58.8,50.5,29.36,West,260,0.0,0.0,74,0.00,CLR,SKC,0.00,WeatherDisplay:10.37,2013-08-03 20:30:00,
2013-08-03 21:35:00,58.6,50.7,29.36,WSW,248,0.0,0.0,75,0.00,CLR,SKC,0.00,WeatherDisplay:10.37,2013-08-03 20:35:00,
2013-08-03 21:40:00,58.6,50.7,29.36,WSW,257,0.0,0.0,75,0.00,CLR,SKC,0.00,WeatherDisplay:10.37,2013-08-03 20:40:00,
2013-08-03 21:45:00,58.3,50.4,29.36,West,267,0.0,0.0,75,0.00,CLR,SKC,0.00,WeatherDisplay:10.37,2013-08-03 20:45:00,
2013-08-03 21:50:00,57.9,50.0,29.37,WNW,292,0.0,0.0,75,0.00,CLR,SKC,0.00,WeatherDisplay:10.37,2013-08-03 20:50:00,
2013-08-03 21:55:00,57.6,50.0,29.37,West,270,0.0,0.0,76,0.00,CLR,SKC,0.00,WeatherDisplay:10.37,2013-08-03 20:55:00,
2013-08-03 22:00:00,57.4,49.9,29.36,WSW,256,0.0,0.0,76,0.00,CLR,SKC,0.00,WeatherDisplay:10.37,2013-08-03 21:00:00,
2013-08-03 22:05:00,57.2,50.1,29.37,WNW,292,0.0,0.0,77,0.00,CLR,SKC,0.00,WeatherDisplay:10.37,2013-08-03 21:05:00,
2013-08-03 22:10:00,57.0,49.9,29.37,West,270,0.0,0.0,77,0.00,CLR,SKC,0.00,WeatherDisplay:10.37,2013-08-03 21:10:00,
2013-08-03 22:15:00,56.9,49.8,29.37,West,277,0.0,0.0,77,0.00,CLR,SKC,0.00,WeatherDisplay:10.37,2013-08-03 21:15:00,
2013-08-03 22:20:00,56.7,49.9,29.37,West,270,0.0,0.0,78,0.00,CLR,SKC,0.00,WeatherDisplay:10.37,2013-08-03 21:20:00,
2013-08-03 22:25:00,56.5,49.7,29.37,West,270,0.0,0.0,78,0.00,CLR,SKC,0.00,WeatherDisplay:10.37,2013-08-03 21:25:00,
2013-08-03 22:29:00,56.3,49.5,29.37,West,270,0.0,0.0,78,0.00,CLR,SKC,0.00,WeatherDisplay:10.37,2013-08-03 21:29:00,
2013-08-03 22:34:00,56.3,49.5,29.37,West,270,0.0,0.0,78,0.00,CLR,SKC,0.00,WeatherDisplay:10.37,2013-08-03 21:34:00,
2013-08-03 22:40:00,56.3,49.9,29.38,West,260,0.0,0.0,79,0.00,CLR,SKC,0.00,WeatherDisplay:10.37,2013-08-03 21:40:00,
2013-08-03 22:45:00,56.3,49.9,29.37,WSW,248,0.0,0.0,79,0.00,CLR,SKC,0.00,WeatherDisplay:10.37,2013-08-03 21:45:00,
2013-08-03 22:50:00,56.3,49.9,29.37,WSW,248,0.0,0.0,79,0.00,CLR,SKC,0.00,WeatherDisplay:10.37,2013-08-03 21:50:00,
2013-08-03 22:55:00,56.3,49.9,29.38,WSW,248,0.0,0.0,79,0.00,CLR,SKC,0.00,WeatherDisplay:10.37,2013-08-03 21:55:00,
2013-08-03 23:00:00,56.1,49.7,29.38,WSW,248,0.0,0.0,79,0.00,CLR,SKC,0.00,WeatherDisplay:10.37,2013-08-03 22:00:00,
2013-08-03 23:04:00,56.1,50.0,29.38,West,260,0.0,0.0,80,0.00,CLR,SKC,0.00,WeatherDisplay:10.37,2013-08-03 22:04:00,
2013-08-03 23:10:00,56.1,50.0,29.38,West,270,0.0,0.0,80,0.00,CLR,SKC,0.00,WeatherDisplay:10.37,2013-08-03 22:10:00,
2013-08-03 23:15:00,56.1,50.0,29.38,WNW,292,0.0,0.0,80,0.00,CLR,SKC,0.00,WeatherDisplay:10.37,2013-08-03 22:15:00,
2013-08-03 23:20:00,56.1,50.0,29.38,West,270,0.0,0.0,80,0.00,CLR,SKC,0.00,WeatherDisplay:10.37,2013-08-03 22:20:00,
2013-08-03 23:25:00,56.3,50.2,29.39,West,270,0.0,0.0,80,0.00,CLR,SKC,0.00,WeatherDisplay:10.37,2013-08-03 22:25:00,
2013-08-03 23:30:00,56.5,50.7,29.38,WSW,251,0.0,0.0,81,0.00,CLR,SKC,0.00,WeatherDisplay:10.37,2013-08-03 22:30:00,
2013-08-03 23:35:00,56.8,51.1,29.39,WNW,292,0.0,0.0,81,0.00,CLR,SKC,0.00,WeatherDisplay:10.37,2013-08-03 22:35:00,
2013-08-03 23:40:00,57.0,51.2,29.38,SSW,202,0.0,0.0,81,0.00,CLR,SKC,0.00,WeatherDisplay:10.37,2013-08-03 22:40:00,
2013-08-03 23:45:00,57.0,50.9,29.38,WSW,248,0.0,0.0,80,0.00,CLR,SKC,0.00,WeatherDisplay:10.37,2013-08-03 22:45:00,
2013-08-03 23:50:00,56.8,50.7,29.39,WNW,292,0.0,0.0,80,0.00,CLR,SKC,0.00,WeatherDisplay:10.37,2013-08-03 22:50:00,
2013-08-03 23:55:00,57.0,50.9,29.39,WNW,292,0.0,0.0,80,0.00,CLR,SKC,0.00,WeatherDisplay:10.37,2013-08-03 22:55:00,